createdAt,value
2023-01-29T00:02:22.317Z,78.87
2023-01-29T00:04:50.169Z,78.67
2023-01-29T00:07:18.091Z,78.21
2023-01-29T00:09:47.352Z,78.26
2023-01-29T00:12:15.169Z,78.37
2023-01-29T00:14:43.075Z,77.73
2023-01-29T00:17:11.095Z,77.80
2023-01-29T00:19:39.010Z,77.80
2023-01-29T00:22:06.880Z,77.98
2023-01-29T00:24:34.859Z,77.48
2023-01-29T00:27:04.217Z,78.04
2023-01-29T00:29:32.112Z,78.07
2023-01-29T00:32:00.197Z,78.26
2023-01-29T00:34:28.229Z,78.09
2023-01-29T00:37:04.916Z,78.13
2023-01-29T00:39:47.436Z,77.53
2023-01-29T00:42:37.105Z,77.66
2023-01-29T00:45:05.587Z,78.25
2023-01-29T00:47:34.391Z,78.19
2023-01-29T00:50:03.658Z,77.66
2023-01-29T00:52:31.723Z,77.10
2023-01-29T00:55:01.658Z,76.44
2023-01-29T00:57:33.587Z,77.57
2023-01-29T01:00:02.142Z,76.94
2023-01-29T01:02:47.932Z,77.15
2023-01-29T01:05:18.882Z,77.44
2023-01-29T01:07:47.866Z,77.03
2023-01-29T01:10:23.146Z,76.80
2023-01-29T01:12:56.601Z,75.90
2023-01-29T01:15:28.591Z,76.50
2023-01-29T01:17:59.331Z,75.31
2023-01-29T01:20:29.362Z,76.28
2023-01-29T01:22:58.227Z,75.26
2023-01-29T01:25:28.403Z,76.31
2023-01-29T01:30:27.800Z,75.75
2023-01-29T01:32:55.725Z,75.88
2023-01-29T01:35:23.672Z,75.88
2023-01-29T01:37:51.506Z,76.03
2023-01-29T01:40:21.389Z,76.29
2023-01-29T01:42:51.122Z,75.35
2023-01-29T01:45:24.362Z,75.30
2023-01-29T01:47:56.970Z,74.85
2023-01-29T01:50:31.115Z,75.08
2023-01-29T01:53:05.871Z,74.85
2023-01-29T01:55:39.024Z,76.01
2023-01-29T01:58:12.808Z,75.48
2023-01-29T02:00:42.066Z,75.61
2023-01-29T02:03:30.619Z,75.40
2023-01-29T02:06:19.025Z,75.40
2023-01-29T02:09:13.970Z,76.60
2023-01-29T02:11:42.176Z,75.68
2023-01-29T02:14:10.682Z,76.05
2023-01-29T02:16:40.385Z,75.27
2023-01-29T02:19:18.196Z,76.17
2023-01-29T02:22:07.891Z,76.28
2023-01-29T02:25:09.579Z,77.52
2023-01-29T02:28:06.546Z,77.13
2023-01-29T02:30:42.334Z,77.15
2023-01-29T02:33:23.259Z,77.40
2023-01-29T02:36:00.255Z,77.61
2023-01-29T02:38:38.317Z,76.58
2023-01-29T02:41:16.192Z,76.71
2023-01-29T02:43:48.563Z,76.57
2023-01-29T02:46:24.825Z,76.34
2023-01-29T02:49:00.983Z,76.98
2023-01-29T02:51:39.919Z,76.91
2023-01-29T02:54:18.055Z,77.56
2023-01-29T02:56:53.282Z,77.70
2023-01-29T02:59:29.450Z,77.48
2023-01-29T03:02:03.880Z,76.38
2023-01-29T03:04:38.604Z,75.97
2023-01-29T03:07:36.477Z,75.77
2023-01-29T03:10:13.297Z,76.08
2023-01-29T03:12:44.081Z,76.66
2023-01-29T03:15:25.127Z,77.30
2023-01-29T03:17:59.144Z,76.81
2023-01-29T03:20:35.531Z,76.61
2023-01-29T03:23:10.411Z,77.08
2023-01-29T03:26:01.459Z,78.27
2023-01-29T03:28:49.010Z,77.77
2023-01-29T03:31:37.493Z,77.12
2023-01-29T03:34:16.352Z,76.86
2023-01-29T03:36:55.799Z,76.68
2023-01-29T03:39:28.591Z,76.65
2023-01-29T03:42:03.635Z,76.76
2023-01-29T03:44:45.856Z,76.96
2023-01-29T03:47:23.547Z,77.08
2023-01-29T03:50:00.929Z,76.60
2023-01-29T03:52:51.011Z,76.91
2023-01-29T03:55:25.850Z,76.15
2023-01-29T03:58:02.083Z,76.61
2023-01-29T04:00:39.009Z,76.62
2023-01-29T04:03:18.790Z,76.18
2023-01-29T04:05:54.597Z,76.05
2023-01-29T04:08:28.796Z,75.96
2023-01-29T04:11:02.927Z,76.74
2023-01-29T04:13:34.585Z,76.04
2023-01-29T04:16:07.439Z,76.75
2023-01-29T04:18:37.759Z,76.91
2023-01-29T04:21:08.187Z,76.80
2023-01-29T04:23:36.114Z,77.27
2023-01-29T04:26:26.140Z,77.31
2023-01-29T04:29:10.658Z,76.96
2023-01-29T04:31:51.075Z,76.04
2023-01-29T04:34:29.483Z,77.28
2023-01-29T04:37:12.586Z,76.34
2023-01-29T04:39:50.199Z,76.42
2023-01-29T04:42:30.913Z,76.08
2023-01-29T04:45:09.042Z,77.01
2023-01-29T04:47:48.287Z,77.54
2023-01-29T04:50:25.207Z,77.52
2023-01-29T04:53:03.500Z,77.06
2023-01-29T04:55:38.979Z,77.27
2023-01-29T04:58:15.324Z,76.91
2023-01-29T05:00:45.551Z,76.61
2023-01-29T05:03:16.443Z,76.10
2023-01-29T05:05:49.687Z,76.13
2023-01-29T05:08:21.457Z,75.97
2023-01-29T05:10:53.609Z,76.47
2023-01-29T05:13:24.834Z,76.59
2023-01-29T05:16:01.653Z,76.34
2023-01-29T05:18:30.776Z,76.00
2023-01-29T05:21:05.963Z,75.79
2023-01-29T05:23:33.778Z,76.58
2023-01-29T05:26:01.868Z,76.20
2023-01-29T05:28:28.745Z,76.76
2023-01-29T05:30:58.187Z,77.00
2023-01-29T05:33:28.362Z,77.02
2023-01-29T05:35:58.030Z,76.66
2023-01-29T05:38:27.749Z,76.58
2023-01-29T05:40:55.605Z,76.80
2023-01-29T05:43:26.157Z,76.75
2023-01-29T05:45:55.292Z,76.83
2023-01-29T05:48:23.931Z,76.93
2023-01-29T05:50:52.284Z,77.28
2023-01-29T05:53:20.451Z,76.08
2023-01-29T05:55:50.475Z,76.48
2023-01-29T05:58:19.713Z,76.03
2023-01-29T06:00:47.639Z,76.15
2023-01-29T06:03:15.641Z,76.34
2023-01-29T06:05:43.594Z,76.17
2023-01-29T06:08:12.042Z,75.46
2023-01-29T06:10:40.096Z,75.17
2023-01-29T06:13:09.344Z,75.41
2023-01-29T06:15:37.174Z,75.15
2023-01-29T06:18:05.203Z,75.13
2023-01-29T06:20:33.077Z,74.36
2023-01-29T06:23:01.333Z,73.93
2023-01-29T06:25:29.205Z,75.32
2023-01-29T06:27:59.400Z,76.42
2023-01-29T06:30:29.213Z,77.05
2023-01-29T06:32:58.783Z,77.41
2023-01-29T06:35:27.174Z,77.46
2023-01-29T06:37:55.111Z,76.85
2023-01-29T06:40:22.995Z,77.34
2023-01-29T06:42:50.854Z,78.44
2023-01-29T06:45:18.778Z,77.47
2023-01-29T06:47:47.993Z,78.46
2023-01-29T06:50:16.093Z,78.52
2023-01-29T06:52:44.156Z,78.08
2023-01-29T06:55:12.122Z,78.21
2023-01-29T06:57:39.941Z,77.99
2023-01-29T07:00:09.892Z,78.61
2023-01-29T07:02:37.728Z,77.84
2023-01-29T07:05:07.481Z,78.17
2023-01-29T07:07:36.776Z,77.98
2023-01-29T07:10:05.204Z,77.67
2023-01-29T07:12:33.085Z,77.96
2023-01-29T07:15:00.936Z,78.96
2023-01-29T07:17:28.793Z,78.79
2023-01-29T07:19:56.613Z,77.86
2023-01-29T07:22:25.860Z,78.08
2023-01-29T07:24:53.713Z,78.24
2023-01-29T07:27:21.530Z,77.49
2023-01-29T07:29:49.441Z,78.32
2023-01-29T07:32:17.312Z,77.80
2023-01-29T07:34:45.192Z,77.65
2023-01-29T07:37:13.019Z,77.74
2023-01-29T07:39:42.316Z,78.32
2023-01-29T07:42:10.156Z,78.29
2023-01-29T07:44:37.985Z,77.61
2023-01-29T07:47:05.967Z,77.74
2023-01-29T07:49:33.835Z,77.41
2023-01-29T07:52:01.684Z,77.54
2023-01-29T07:54:29.551Z,77.20
2023-01-29T07:56:58.811Z,77.99
2023-01-29T07:59:26.675Z,77.68
2023-01-29T08:01:54.684Z,76.96
2023-01-29T08:04:22.794Z,77.18
2023-01-29T08:06:50.639Z,77.60
2023-01-29T08:09:18.533Z,77.46
2023-01-29T08:11:46.438Z,77.12
2023-01-29T08:14:16.143Z,77.08
2023-01-29T08:16:44.047Z,77.53
2023-01-29T08:19:11.952Z,78.03
2023-01-29T08:21:39.787Z,77.43
2023-01-29T08:24:08.266Z,77.96
2023-01-29T08:26:36.162Z,77.53
2023-01-29T08:29:04.190Z,77.38
2023-01-29T08:31:33.586Z,76.91
2023-01-29T08:34:01.531Z,77.67
2023-01-29T08:36:29.472Z,77.89
2023-01-29T08:38:57.335Z,77.91
2023-01-29T08:41:25.358Z,77.52
2023-01-29T08:43:53.216Z,76.47
2023-01-29T08:46:21.187Z,77.38
2023-01-29T08:48:50.462Z,77.76
2023-01-29T08:51:18.627Z,76.84
2023-01-29T08:53:46.477Z,77.19
2023-01-29T08:56:16.289Z,77.84
2023-01-29T08:58:44.360Z,76.77
2023-01-29T09:01:14.417Z,78.14
2023-01-29T09:03:43.836Z,77.57
2023-01-29T09:06:18.270Z,78.86
2023-01-29T09:08:46.191Z,78.71
2023-01-29T09:11:14.144Z,77.81
2023-01-29T09:13:41.994Z,77.99
2023-01-29T09:16:11.170Z,77.29
2023-01-29T09:18:39.106Z,76.98
2023-01-29T09:21:07.054Z,76.29
2023-01-29T09:23:36.287Z,75.89
2023-01-29T09:26:04.251Z,75.88
2023-01-29T09:28:32.119Z,75.69
2023-01-29T09:31:02.251Z,76.27
2023-01-29T09:33:30.959Z,76.35
2023-01-29T09:35:59.042Z,76.47
2023-01-29T09:38:26.980Z,75.81
2023-01-29T09:41:07.372Z,76.33
2023-01-29T09:43:46.333Z,76.17
2023-01-29T09:46:22.185Z,76.04
2023-01-29T09:49:05.267Z,76.18
2023-01-29T09:51:41.163Z,75.13
2023-01-29T09:54:19.600Z,76.49
2023-01-29T09:56:53.881Z,74.67
2023-01-29T09:59:24.344Z,75.63
2023-01-29T10:02:07.113Z,74.86
2023-01-29T10:05:03.039Z,74.93
2023-01-29T10:08:17.705Z,75.76
2023-01-29T10:10:52.138Z,74.21
2023-01-29T10:13:33.867Z,73.92
2023-01-29T10:16:19.702Z,73.39
2023-01-29T10:19:07.968Z,73.54
2023-01-29T10:22:01.610Z,74.14
2023-01-29T10:24:38.874Z,73.29
2023-01-29T10:27:16.793Z,74.16
2023-01-29T10:29:50.068Z,73.68
2023-01-29T10:32:22.058Z,73.90
2023-01-29T10:34:57.326Z,74.21
2023-01-29T10:37:36.264Z,73.69
2023-01-29T10:40:19.859Z,73.72
2023-01-29T10:42:57.843Z,74.51
2023-01-29T10:45:42.199Z,74.76
2023-01-29T10:48:49.645Z,74.83
2023-01-29T10:51:41.995Z,74.26
2023-01-29T10:54:30.464Z,74.34
2023-01-29T10:57:10.851Z,72.98
2023-01-29T10:59:57.100Z,73.16
2023-01-29T11:02:26.449Z,72.15
2023-01-29T11:04:54.401Z,72.46
2023-01-29T11:07:24.076Z,73.11
2023-01-29T11:10:01.690Z,74.54
2023-01-29T11:12:33.605Z,74.02
2023-01-29T11:15:08.083Z,74.81
2023-01-29T11:17:37.397Z,74.12
2023-01-29T11:20:26.528Z,73.30
2023-01-29T11:22:56.721Z,73.99
2023-01-29T11:25:24.973Z,74.09
2023-01-29T11:27:56.322Z,74.11
2023-01-29T11:30:28.338Z,73.03
2023-01-29T11:33:09.038Z,73.14
2023-01-29T11:35:38.054Z,71.96
2023-01-29T11:38:19.394Z,73.49
2023-01-29T11:40:48.191Z,72.62
2023-01-29T11:43:30.261Z,73.94
2023-01-29T11:46:02.880Z,73.15
2023-01-29T11:48:44.344Z,73.69
2023-01-29T11:51:22.330Z,73.44
2023-01-29T11:53:56.042Z,73.47
2023-01-29T11:56:30.323Z,72.62
2023-01-29T11:59:00.118Z,73.03
2023-01-29T12:01:35.262Z,72.10
2023-01-29T12:04:17.523Z,73.89
2023-01-29T12:06:51.883Z,73.21
2023-01-29T12:09:24.706Z,73.34
2023-01-29T12:11:53.001Z,73.24
2023-01-29T12:14:30.198Z,73.78
2023-01-29T12:17:05.589Z,74.56
2023-01-29T12:19:43.297Z,74.22
2023-01-29T12:22:21.572Z,73.50
2023-01-29T12:24:58.609Z,73.33
2023-01-29T12:27:33.054Z,73.53
2023-01-29T12:30:13.695Z,74.53
2023-01-29T12:32:50.913Z,74.47
2023-01-29T12:35:27.307Z,74.34
2023-01-29T12:38:02.449Z,74.12
2023-01-29T12:40:35.638Z,73.26
2023-01-29T12:43:14.335Z,73.41
2023-01-29T12:45:44.553Z,72.42
2023-01-29T12:48:18.950Z,73.45
2023-01-29T12:50:52.219Z,73.96
2023-01-29T12:53:29.503Z,73.86
2023-01-29T12:56:04.131Z,74.83
2023-01-29T12:58:39.153Z,73.52
2023-01-29T13:01:15.986Z,74.78
2023-01-29T13:03:53.093Z,74.43
2023-01-29T13:06:30.366Z,74.27
2023-01-29T13:09:03.936Z,74.72
2023-01-29T13:11:40.629Z,74.26
2023-01-29T13:14:20.101Z,74.46
2023-01-29T13:16:53.785Z,75.07
2023-01-29T13:19:32.551Z,74.24
2023-01-29T13:22:06.421Z,74.67
2023-01-29T13:24:40.842Z,75.01
2023-01-29T13:27:25.049Z,74.17
2023-01-29T13:29:54.466Z,73.76
2023-01-29T13:32:27.112Z,73.66
2023-01-29T13:34:58.957Z,74.25
2023-01-29T13:37:34.743Z,74.01
2023-01-29T13:40:06.401Z,73.48
2023-01-29T13:42:43.627Z,73.62
2023-01-29T13:45:23.551Z,72.44
2023-01-29T13:47:53.779Z,73.09
2023-01-29T13:50:38.422Z,73.82
2023-01-29T13:53:21.344Z,74.29
2023-01-29T13:55:49.268Z,73.43
2023-01-29T13:58:19.015Z,73.95
2023-01-29T14:00:51.592Z,73.07
2023-01-29T14:04:02.252Z,73.23
2023-01-29T14:06:51.424Z,73.28
2023-01-29T14:10:05.180Z,73.32
2023-01-29T14:12:45.650Z,73.85
2023-01-29T14:15:23.446Z,73.65
2023-01-29T14:18:26.225Z,73.48
2023-01-29T14:21:04.391Z,74.09
2023-01-29T14:23:41.358Z,74.61
2023-01-29T14:26:31.032Z,73.96
2023-01-29T14:29:04.218Z,73.41
2023-01-29T14:31:43.125Z,73.67
2023-01-29T14:34:28.067Z,74.20
2023-01-29T14:36:59.870Z,73.86
2023-01-29T14:39:39.124Z,73.06
2023-01-29T14:42:27.013Z,73.43
2023-01-29T14:45:09.213Z,73.41
2023-01-29T14:47:57.599Z,74.22
2023-01-29T14:50:49.423Z,73.20
2023-01-29T14:53:32.874Z,74.07
2023-01-29T14:56:05.265Z,74.32
2023-01-29T14:58:43.492Z,74.08
2023-01-29T15:01:21.975Z,74.16
2023-01-29T15:03:53.364Z,73.59
2023-01-29T15:06:35.240Z,73.82
2023-01-29T15:09:14.135Z,73.63
2023-01-29T15:11:52.346Z,73.16
2023-01-29T15:14:32.665Z,73.83
2023-01-29T15:17:18.629Z,73.29
2023-01-29T15:19:49.379Z,73.93
2023-01-29T15:22:19.998Z,74.28
2023-01-29T15:25:02.629Z,73.80
2023-01-29T15:27:30.913Z,74.47
2023-01-29T15:30:03.385Z,73.65
2023-01-29T15:32:36.411Z,73.70
2023-01-29T15:35:10.568Z,73.50
2023-01-29T15:37:39.076Z,73.37
2023-01-29T15:40:16.530Z,74.44
2023-01-29T15:42:48.533Z,74.61
2023-01-29T15:45:27.408Z,73.96
2023-01-29T15:48:02.298Z,73.73
2023-01-29T15:50:33.888Z,73.48
2023-01-29T15:53:07.718Z,73.91
2023-01-29T15:55:37.255Z,74.31
2023-01-29T15:58:05.834Z,74.29
2023-01-29T16:00:35.382Z,75.16
2023-01-29T16:03:15.343Z,75.17
2023-01-29T16:05:43.794Z,75.09
2023-01-29T16:08:16.091Z,75.72
2023-01-29T16:10:45.911Z,75.54
2023-01-29T16:13:22.253Z,76.02
2023-01-29T16:16:00.665Z,75.91
2023-01-29T16:18:33.958Z,76.13
2023-01-29T16:21:09.979Z,75.63
2023-01-29T16:23:44.499Z,76.26
2023-01-29T16:26:19.007Z,75.75
2023-01-29T16:28:48.784Z,76.49
2023-01-29T16:31:27.369Z,76.78
2023-01-29T16:33:57.610Z,76.31
2023-01-29T16:36:28.884Z,76.27
2023-01-29T16:39:02.022Z,75.37
2023-01-29T16:41:32.682Z,75.96
2023-01-29T16:44:03.776Z,75.62
2023-01-29T16:46:37.162Z,75.35
2023-01-29T16:49:49.749Z,75.89
2023-01-29T16:52:21.495Z,76.12
2023-01-29T16:54:49.420Z,75.28
2023-01-29T16:57:22.607Z,75.50
2023-01-29T16:59:55.462Z,76.11
2023-01-29T17:02:29.437Z,76.04
2023-01-29T17:05:02.808Z,75.74
2023-01-29T17:07:33.796Z,76.29
2023-01-29T17:10:05.482Z,76.09
2023-01-29T17:12:36.806Z,76.07
2023-01-29T17:15:35.110Z,76.29
2023-01-29T17:18:05.011Z,76.47
2023-01-29T17:20:33.285Z,76.47
2023-01-29T17:23:01.213Z,76.78
2023-01-29T17:25:30.389Z,76.56
2023-01-29T17:28:02.274Z,76.34
2023-01-29T17:30:34.921Z,76.71
2023-01-29T17:33:12.722Z,76.44
2023-01-29T17:35:42.196Z,76.52
2023-01-29T17:38:24.998Z,76.45
2023-01-29T17:40:59.507Z,77.13
2023-01-29T17:43:27.710Z,77.39
2023-01-29T17:45:55.834Z,76.91
2023-01-29T17:48:27.464Z,76.86
2023-01-29T17:50:57.757Z,77.22
2023-01-29T17:53:30.475Z,77.67
2023-01-29T17:56:04.487Z,78.12
2023-01-29T17:58:32.500Z,78.31
2023-01-29T18:01:00.426Z,79.17
2023-01-29T18:03:30.142Z,79.50
2023-01-29T18:05:58.111Z,78.83
2023-01-29T18:08:31.191Z,78.58
2023-01-29T18:10:59.193Z,78.83
2023-01-29T18:13:27.239Z,78.81
2023-01-29T18:15:55.708Z,79.24
2023-01-29T18:18:25.168Z,79.09
2023-01-29T18:20:54.373Z,79.03
2023-01-29T18:23:22.425Z,78.40
2023-01-29T18:25:50.356Z,78.74
2023-01-29T18:28:18.949Z,78.27
2023-01-29T18:30:47.705Z,78.42
2023-01-29T18:33:17.069Z,78.84
2023-01-29T18:35:45.392Z,78.58
2023-01-29T18:38:14.753Z,78.94
2023-01-29T18:40:42.629Z,80.24
2023-01-29T18:43:10.855Z,80.82
2023-01-29T18:45:38.777Z,80.47
2023-01-29T18:48:07.243Z,80.30
2023-01-29T18:50:35.584Z,81.46
2023-01-29T18:53:04.332Z,81.44
2023-01-29T18:55:33.920Z,81.72
2023-01-29T18:58:28.176Z,81.88
2023-01-29T19:00:50.020Z,81.69
2023-01-29T19:03:18.642Z,82.18
2023-01-29T19:05:46.589Z,81.53
2023-01-29T19:08:14.669Z,82.08
2023-01-29T19:10:43.983Z,81.92
2023-01-29T19:13:11.845Z,81.64
2023-01-29T19:15:42.933Z,81.29
2023-01-29T19:18:12.555Z,81.85
2023-01-29T19:20:42.951Z,81.76
2023-01-29T19:23:10.945Z,80.85
2023-01-29T19:25:39.283Z,81.79
2023-01-29T19:28:09.017Z,82.02
2023-01-29T19:30:37.067Z,81.70
2023-01-29T19:33:05.407Z,82.56
2023-01-29T19:35:34.028Z,81.83
2023-01-29T19:38:02.087Z,82.09
2023-01-29T19:40:30.036Z,81.93
2023-01-29T19:42:58.443Z,82.13
2023-01-29T19:45:49.610Z,82.60
2023-01-29T19:48:20.340Z,82.80
2023-01-29T19:50:53.105Z,83.21
2023-01-29T19:53:21.055Z,83.58
2023-01-29T19:55:49.347Z,83.40
2023-01-29T19:58:17.262Z,82.85
2023-01-29T20:00:46.614Z,82.67
2023-01-29T20:03:14.545Z,82.81
2023-01-29T20:05:42.440Z,83.56
2023-01-29T20:08:10.327Z,83.87
2023-01-29T20:10:39.339Z,83.62
2023-01-29T20:13:07.279Z,83.87
2023-01-29T20:15:35.208Z,84.00
2023-01-29T20:18:05.561Z,84.02
2023-01-29T20:20:33.442Z,83.75
2023-01-29T20:23:01.481Z,84.44
2023-01-29T20:25:29.826Z,83.88
2023-01-29T20:27:57.656Z,84.59
2023-01-29T20:30:25.560Z,84.46
2023-01-29T20:32:53.517Z,83.92
2023-01-29T20:35:22.845Z,83.96
2023-01-29T20:37:50.766Z,83.77
2023-01-29T20:40:19.195Z,84.40
2023-01-29T20:42:47.369Z,83.80
2023-01-29T20:45:16.304Z,84.09
2023-01-29T20:47:44.893Z,83.91
2023-01-29T20:50:15.423Z,84.60
2023-01-29T20:52:44.868Z,84.16
2023-01-29T20:55:14.123Z,84.11
2023-01-29T20:57:42.219Z,84.65
2023-01-29T21:00:12.816Z,84.39
2023-01-29T21:02:40.977Z,84.10
2023-01-29T21:05:09.115Z,83.62
2023-01-29T21:07:37.214Z,83.96
2023-01-29T21:10:07.565Z,84.55
2023-01-29T21:12:35.533Z,84.10
2023-01-29T21:15:03.570Z,83.96
2023-01-29T21:17:31.407Z,84.87
2023-01-29T21:19:59.296Z,84.32
2023-01-29T21:22:27.119Z,84.29
2023-01-29T21:24:54.972Z,83.87
2023-01-29T21:27:25.437Z,84.22
2023-01-29T21:29:53.330Z,84.46
2023-01-29T21:32:21.296Z,84.28
2023-01-29T21:35:01.818Z,83.53
2023-01-29T21:37:30.265Z,83.47
2023-01-29T21:39:58.173Z,84.47
2023-01-29T21:42:47.128Z,84.13
2023-01-29T21:45:15.126Z,83.91
2023-01-29T21:47:42.988Z,83.53
2023-01-29T21:50:11.984Z,83.79
2023-01-29T21:52:39.856Z,84.49
2023-01-29T21:55:08.376Z,83.89
2023-01-29T21:57:37.717Z,83.74
2023-01-29T22:00:06.831Z,83.97
2023-01-29T22:02:34.777Z,84.46
2023-01-29T22:05:17.628Z,83.64
2023-01-29T22:07:47.023Z,83.94
2023-01-29T22:10:15.474Z,84.42
2023-01-29T22:12:45.079Z,84.12
2023-01-29T22:15:14.069Z,84.39
2023-01-29T22:17:42.774Z,84.29
2023-01-29T22:20:12.986Z,84.78
2023-01-29T22:22:41.099Z,84.17
2023-01-29T22:25:09.996Z,84.26
2023-01-29T22:27:38.354Z,84.37
2023-01-29T22:30:09.279Z,84.60
2023-01-29T22:32:37.369Z,83.86
2023-01-29T22:35:05.869Z,84.64
2023-01-29T22:37:33.776Z,84.02
2023-01-29T22:40:01.707Z,84.61
2023-01-29T22:42:29.575Z,84.38
2023-01-29T22:44:57.426Z,84.29
2023-01-29T22:47:26.900Z,84.72
2023-01-29T22:49:54.852Z,84.30
2023-01-29T22:52:23.035Z,84.35
2023-01-29T22:54:51.930Z,84.04
2023-01-29T22:57:20.393Z,83.76
2023-01-29T22:59:48.294Z,84.34
2023-01-29T23:02:16.539Z,83.47
2023-01-29T23:04:45.877Z,83.84
2023-01-29T23:07:13.896Z,83.61
2023-01-29T23:09:41.761Z,83.31
2023-01-29T23:12:09.722Z,83.67
2023-01-29T23:14:37.620Z,83.87
2023-01-29T23:17:05.495Z,84.49
2023-01-29T23:19:33.447Z,85.30
2023-01-29T23:22:03.167Z,84.74
2023-01-29T23:24:31.081Z,84.34
2023-01-29T23:27:16.088Z,84.48
2023-01-29T23:29:45.303Z,84.07
2023-01-29T23:32:16.886Z,84.98
2023-01-29T23:34:44.827Z,85.49
2023-01-29T23:37:14.446Z,85.34
2023-01-29T23:39:42.331Z,84.92
2023-01-29T23:42:10.210Z,84.93
2023-01-29T23:44:38.043Z,85.06
2023-01-29T23:47:05.988Z,85.36
2023-01-29T23:49:34.004Z,85.16
2023-01-29T23:52:01.928Z,85.51
2023-01-29T23:54:31.154Z,84.21
2023-01-29T23:56:59.032Z,84.72
2023-01-29T23:59:28.232Z,85.41
